Time;durP1;ratioP1;P1;durP2;ratioP2;P2;SDS_P1;SDS_P2;PMS_P1;PMS_P2;Temp;Humidity;BMP_temperature;BMP_pressure;BME280_temperature;BME280_humidity;BME280_pressure;Samples;Min_cycle;Max_cycle;Signal;HPM_P1;HPM_P2
2023/07/10 00:00:34;;;;;;;6.90;4.47;;;25.90;66.90;;;;;;10521445;28;20216;-80
2023/07/10 00:05:37;;;;;;;5.60;5.10;;;25.80;67.20;;;;;;10521610;28;20221;-79
2023/07/10 00:10:40;;;;;;;5.67;5.17;;;25.80;67.40;;;;;;10522764;28;20291;-79
2023/07/10 00:15:42;;;;;;;5.60;5.10;;;25.80;67.70;;;;;;10519281;28;20229;-79
2023/07/10 00:20:45;;;;;;;9.20;5.40;;;25.70;67.80;;;;;;10519355;28;20575;-79
2023/07/10 00:25:49;;;;;;;7.80;4.87;;;25.80;68.00;;;;;;10507370;28;20255;-79
2023/07/10 00:30:51;;;;;;;5.20;4.80;;;25.80;68.10;;;;;;10530505;28;20205;-79
2023/07/10 00:35:53;;;;;;;6.07;5.50;;;25.80;68.00;;;;;;10515686;28;20255;-79
2023/07/10 00:41:00;;;;;;;5.50;5.10;;;25.80;67.60;;;;;;10517122;28;20219;-78
2023/07/10 00:46:13;;;;;;;5.57;5.00;;;25.80;66.50;;;;;;10516237;28;20216;-77
2023/07/10 00:51:22;;;;;;;5.10;4.70;;;25.80;65.80;;;;;;10506943;28;20201;-79
2023/07/10 00:56:34;;;;;;;5.60;5.20;;;25.80;65.80;;;;;;10498497;28;20221;-79
2023/07/10 01:02:14;;;;;;;6.17;5.57;;;25.80;66.80;;;;;;10502068;28;20234;-79
2023/07/10 01:07:17;;;;;;;6.07;5.47;;;25.80;67.00;;;;;;10510846;28;20212;-78
2023/07/10 01:12:21;;;;;;;5.23;4.80;;;25.70;66.90;;;;;;10504382;28;20838;-79
2023/07/10 01:17:27;;;;;;;5.67;5.20;;;25.70;66.30;;;;;;10517532;28;20212;-79
2023/07/10 01:22:31;;;;;;;5.40;4.90;;;25.60;66.60;;;;;;10528426;28;20203;-79
2023/07/10 01:27:33;;;;;;;5.33;4.83;;;25.60;66.80;;;;;;10523152;28;20231;-79
2023/07/10 01:32:35;;;;;;;6.37;4.90;;;25.60;67.10;;;;;;10516294;28;20220;-79
2023/07/10 01:37:40;;;;;;;5.60;5.10;;;25.60;66.60;;;;;;10508007;28;20873;-79
2023/07/10 01:42:42;;;;;;;4.70;4.17;;;25.60;67.00;;;;;;10512405;28;20683;-79
2023/07/10 01:47:44;;;;;;;6.20;5.40;;;25.60;67.80;;;;;;10525965;28;20244;-79
2023/07/10 01:52:48;;;;;;;5.33;4.93;;;25.50;68.30;;;;;;10479414;28;20311;-79
2023/07/10 01:57:50;;;;;;;5.07;4.57;;;25.50;68.10;;;;;;10514795;28;20308;-78
2023/07/10 02:02:52;;;;;;;5.93;5.40;;;25.50;68.50;;;;;;10503542;28;20208;-79
2023/07/10 02:07:56;;;;;;;15.90;5.93;;;25.40;69.20;;;;;;10503882;28;20216;-79
2023/07/10 02:12:59;;;;;;;6.63;5.97;;;25.40;70.00;;;;;;10512014;28;20628;-79
2023/07/10 02:18:01;;;;;;;5.70;5.20;;;25.40;71.10;;;;;;10499520;28;20228;-79
2023/07/10 02:23:05;;;;;;;6.43;5.93;;;25.40;72.00;;;;;;10520395;28;20198;-78
2023/07/10 02:28:07;;;;;;;6.10;5.50;;;25.40;72.00;;;;;;10531764;28;20318;-79
2023/07/10 02:33:09;;;;;;;5.90;5.40;;;25.40;72.00;;;;;;10517131;28;20220;-79
2023/07/10 02:38:13;;;;;;;6.70;6.20;;;25.40;72.40;;;;;;10496210;28;20340;-78
2023/07/10 02:43:15;;;;;;;7.00;6.40;;;25.40;73.10;;;;;;10499213;28;20227;-78
2023/07/10 02:48:17;;;;;;;6.00;5.57;;;25.40;73.60;;;;;;10502543;28;20308;-79
2023/07/10 02:53:22;;;;;;;6.40;5.90;;;25.50;73.50;;;;;;10517094;28;20232;-78
2023/07/10 02:58:24;;;;;;;6.77;5.50;;;25.50;73.10;;;;;;10501348;28;20240;-79
2023/07/10 03:03:26;;;;;;;5.60;5.20;;;25.50;72.90;;;;;;10496552;28;20239;-79
2023/07/10 03:08:30;;;;;;;6.37;5.87;;;25.60;75.20;;;;;;10515825;28;20229;-78
2023/07/10 03:13:33;;;;;;;6.90;6.30;;;25.60;77.00;;;;;;10483231;28;20213;-79
2023/07/10 03:18:35;;;;;;;6.73;6.00;;;25.60;77.70;;;;;;10497003;28;20632;-78
2023/07/10 03:23:39;;;;;;;7.23;6.40;;;25.60;77.10;;;;;;10515516;28;20203;-79
2023/07/10 03:28:41;;;;;;;7.03;6.40;;;25.60;77.50;;;;;;10488349;28;20595;-79
2023/07/10 03:33:43;;;;;;;6.23;5.80;;;25.60;77.70;;;;;;10484368;28;20218;-78
2023/07/10 03:38:47;;;;;;;6.70;6.10;;;25.60;76.60;;;;;;10480840;28;20213;-79
2023/07/10 03:43:49;;;;;;;6.40;5.90;;;25.60;77.20;;;;;;10462061;28;20548;-78
2023/07/10 03:48:51;;;;;;;9.93;7.07;;;25.60;77.50;;;;;;10480180;28;20208;-78
2023/07/10 03:53:54;;;;;;;7.10;6.40;;;25.60;76.90;;;;;;10483835;28;20251;-78
2023/07/10 03:58:57;;;;;;;7.83;7.23;;;25.60;76.40;;;;;;10478756;28;20194;-78
2023/07/10 04:03:59;;;;;;;7.60;6.87;;;25.60;76.10;;;;;;10483839;28;20617;-78
2023/07/10 04:09:02;;;;;;;8.70;6.50;;;25.60;75.70;;;;;;10479475;28;20198;-78
2023/07/10 04:14:04;;;;;;;6.73;6.13;;;25.60;75.50;;;;;;10463115;28;20769;-78
2023/07/10 04:19:06;;;;;;;7.50;6.73;;;25.60;75.80;;;;;;10479803;28;20197;-77
2023/07/10 04:24:10;;;;;;;7.77;6.23;;;25.60;76.40;;;;;;10467059;28;20205;-78
2023/07/10 04:29:13;;;;;;;6.43;5.93;;;25.70;76.40;;;;;;10520590;28;20197;-78
2023/07/10 04:34:15;;;;;;;6.83;6.23;;;25.70;76.60;;;;;;10518073;28;20320;-78
2023/07/10 04:39:19;;;;;;;7.10;6.40;;;25.70;76.80;;;;;;10524425;28;20208;-78
2023/07/10 04:44:21;;;;;;;7.17;6.50;;;25.80;78.20;;;;;;10519109;28;20213;-79
2023/07/10 04:49:23;;;;;;;8.80;5.60;;;25.80;77.90;;;;;;10520262;28;20297;-79
2023/07/10 04:54:26;;;;;;;6.47;5.87;;;25.80;78.00;;;;;;10523964;28;20659;-79
2023/07/10 04:59:28;;;;;;;7.93;5.90;;;25.80;78.20;;;;;;10515965;28;20681;-79
2023/07/10 05:04:30;;;;;;;6.60;6.00;;;25.80;77.70;;;;;;10498542;28;20264;-78
2023/07/10 05:09:34;;;;;;;5.60;5.13;;;25.80;77.50;;;;;;10513856;28;20686;-79
2023/07/10 05:14:36;;;;;;;5.90;5.40;;;25.70;78.20;;;;;;10518331;28;20248;-78
2023/07/10 05:19:40;;;;;;;7.53;5.57;;;25.80;78.00;;;;;;10517609;28;20296;-78
2023/07/10 05:24:43;;;;;;;6.73;6.03;;;25.80;76.80;;;;;;10501840;28;20284;-79
2023/07/10 05:29:46;;;;;;;5.87;5.43;;;25.90;76.50;;;;;;10518243;28;20197;-77
2023/07/10 05:34:48;;;;;;;6.57;5.90;;;26.00;79.10;;;;;;10520547;28;20217;-79
2023/07/10 05:39:52;;;;;;;6.13;5.63;;;26.00;79.60;;;;;;10515897;28;20254;-77
2023/07/10 05:44:55;;;;;;;6.50;5.73;;;26.10;80.30;;;;;;10500193;28;20231;-78
2023/07/10 05:49:57;;;;;;;6.53;5.90;;;26.20;79.10;;;;;;10516387;28;20205;-79
2023/07/10 05:55:00;;;;;;;6.20;5.70;;;26.30;80.60;;;;;;10494947;28;20768;-78
2023/07/10 06:00:02;;;;;;;6.13;5.63;;;26.40;79.20;;;;;;10519350;28;20676;-80
2023/07/10 06:05:09;;;;;;;6.37;5.93;;;26.40;77.90;;;;;;10520243;28;20213;-78
2023/07/10 06:10:12;;;;;;;6.80;6.13;;;26.40;78.30;;;;;;10519384;28;20199;-78
2023/07/10 06:15:14;;;;;;;5.90;5.43;;;26.50;77.60;;;;;;10518515;28;20286;-79
2023/07/10 06:20:17;;;;;;;5.70;5.30;;;26.50;77.60;;;;;;10513906;28;20220;-79
2023/07/10 06:25:21;;;;;;;6.70;6.10;;;26.60;77.30;;;;;;10502864;28;20236;-79
2023/07/10 06:30:23;;;;;;;6.57;5.30;;;26.90;75.90;;;;;;10518379;28;20359;-78
2023/07/10 06:35:25;;;;;;;7.13;5.40;;;27.20;75.20;;;;;;10521248;28;20228;-79
2023/07/10 06:40:29;;;;;;;6.70;6.00;;;27.40;76.30;;;;;;10518038;28;20212;-79
2023/07/10 06:45:31;;;;;;;9.53;5.73;;;27.50;74.40;;;;;;10502745;28;20217;-79
2023/07/10 06:50:33;;;;;;;8.03;6.30;;;27.60;75.90;;;;;;10498659;28;20196;-79
2023/07/10 06:55:37;;;;;;;6.37;5.87;;;27.80;74.40;;;;;;10514479;28;20241;-79
2023/07/10 07:00:39;;;;;;;6.00;5.40;;;27.90;74.70;;;;;;10502912;28;20266;-78
2023/07/10 07:05:42;;;;;;;7.20;5.43;;;28.30;73.80;;;;;;10522082;28;20241;-79
2023/07/10 07:10:46;;;;;;;6.07;5.47;;;28.40;73.30;;;;;;10529532;28;20601;-79
2023/07/10 07:15:50;;;;;;;5.40;5.00;;;28.60;72.80;;;;;;10525582;28;20284;-79
2023/07/10 07:20:52;;;;;;;6.20;5.30;;;28.80;71.60;;;;;;10530749;28;20846;-79
2023/07/10 07:25:55;;;;;;;6.70;5.13;;;29.00;71.50;;;;;;10527282;28;20228;-79
2023/07/10 07:31:05;;;;;;;6.23;5.63;;;29.20;70.70;;;;;;10521866;28;20205;-79
2023/07/10 07:36:07;;;;;;;5.13;4.57;;;29.20;71.00;;;;;;10508014;28;20304;-78
2023/07/10 07:41:11;;;;;;;6.60;4.90;;;29.20;71.10;;;;;;10522721;28;20197;-79
2023/07/10 07:46:14;;;;;;;5.10;4.70;;;29.20;70.80;;;;;;10508467;28;20208;-79
2023/07/10 07:51:17;;;;;;;5.57;4.63;;;29.40;71.40;;;;;;10525956;28;20226;-78
2023/07/10 07:56:20;;;;;;;5.50;4.70;;;29.40;69.40;;;;;;10524786;28;20224;-80
2023/07/10 08:01:22;;;;;;;5.83;4.33;;;29.40;70.30;;;;;;10516958;28;20534;-79
2023/07/10 08:06:27;;;;;;;5.30;4.87;;;29.70;70.70;;;;;;10525241;28;20755;-80
2023/07/10 08:11:31;;;;;;;5.53;4.90;;;30.00;70.20;;;;;;10533680;28;20254;-79
2023/07/10 08:16:33;;;;;;;4.23;3.93;;;30.50;69.20;;;;;;10522732;28;20242;-79
2023/07/10 08:21:35;;;;;;;5.33;4.83;;;31.00;68.10;;;;;;10524277;28;20189;-79
2023/07/10 08:26:38;;;;;;;5.90;4.60;;;31.60;67.40;;;;;;10523090;28;20235;-79
2023/07/10 08:31:40;;;;;;;5.00;4.50;;;31.90;65.50;;;;;;10504213;28;20208;-80
2023/07/10 08:36:43;;;;;;;5.30;4.80;;;31.90;65.30;;;;;;10506494;28;20235;-80
2023/07/10 08:41:51;;;;;;;6.83;4.80;;;32.10;65.60;;;;;;10522841;28;20227;-79
2023/07/10 08:46:53;;;;;;;4.70;4.30;;;32.50;64.70;;;;;;10506345;28;20220;-79
2023/07/10 08:52:02;;;;;;;5.13;4.73;;;32.90;64.10;;;;;;10523842;28;20205;-80
2023/07/10 08:57:16;;;;;;;5.73;4.90;;;33.30;62.90;;;;;;10521296;28;20220;-80
2023/07/10 09:02:26;;;;;;;5.80;5.00;;;33.70;61.80;;;;;;10507358;28;20204;-80
2023/07/10 09:07:30;;;;;;;4.97;4.47;;;33.50;62.30;;;;;;10524808;28;20219;-80
2023/07/10 09:12:39;;;;;;;7.83;5.37;;;33.70;62.30;;;;;;10515217;28;20197;-80
2023/07/10 09:17:54;;;;;;;5.80;5.20;;;33.80;62.20;;;;;;10513040;28;20324;-80
2023/07/10 09:23:00;;;;;;;5.20;4.80;;;34.10;62.70;;;;;;10523267;28;20218;-80
2023/07/10 09:28:04;;;;;;;6.10;5.23;;;34.00;62.10;;;;;;10515948;28;20255;-80
2023/07/10 09:33:09;;;;;;;5.90;5.37;;;34.00;62.00;;;;;;10508986;28;20204;-80
2023/07/10 09:38:12;;;;;;;6.53;5.93;;;33.60;62.60;;;;;;10526408;28;20224;-80
2023/07/10 09:43:17;;;;;;;6.40;5.90;;;33.10;64.00;;;;;;10498714;28;20308;-80
2023/07/10 09:48:25;;;;;;;5.13;4.63;;;32.90;65.40;;;;;;10518681;28;20277;-80
2023/07/10 09:53:31;;;;;;;5.10;4.70;;;33.60;64.90;;;;;;10516735;28;20219;-80
2023/07/10 09:58:46;;;;;;;7.00;5.00;;;34.50;62.30;;;;;;10515495;28;20243;-81
2023/07/10 10:03:52;;;;;;;5.33;5.03;;;35.60;60.20;;;;;;10518316;28;20663;-80
2023/07/10 10:08:55;;;;;;;6.72;5.72;;;36.20;59.20;;;;;;10498449;28;20258;-81
2023/07/10 10:14:03;;;;;;;6.38;5.78;;;37.10;58.20;;;;;;10515246;28;20196;-81
2023/07/10 10:19:12;;;;;;;4.95;4.63;;;37.30;56.90;;;;;;10483674;28;20200;-81
2023/07/10 10:24:15;;;;;;;5.63;4.70;;;36.90;57.30;;;;;;10499331;28;20256;-80
2023/07/10 10:29:36;;;;;;;5.50;5.00;;;36.80;57.50;;;;;;10516195;28;20239;-80
2023/07/10 10:34:47;;;;;;;6.10;5.57;;;36.30;57.50;;;;;;10519794;28;20757;-80
2023/07/10 10:39:57;;;;;;;5.00;4.67;;;35.60;58.10;;;;;;10499462;28;20214;-80
2023/07/10 10:45:10;;;;;;;6.30;5.83;;;34.80;59.40;;;;;;10529464;28;20288;-80
2023/07/10 10:50:43;;;;;;;8.70;5.20;;;34.20;60.60;;;;;;10521005;28;20227;-80
2023/07/10 10:56:06;;;;;;;5.30;4.80;;;33.70;61.90;;;;;;10516858;28;20278;-76
2023/07/10 11:01:24;;;;;;;8.73;5.63;;;33.50;61.90;;;;;;10499722;28;20284;-80
2023/07/10 11:06:59;;;;;;;7.27;6.10;;;33.20;63.20;;;;;;10498003;28;20213;-81
2023/07/10 11:12:03;;;;;;;5.90;5.40;;;32.80;63.00;;;;;;10402121;28;20200;-80
2023/07/10 11:17:10;;;;;;;6.50;5.80;;;32.50;64.20;;;;;;10522263;28;20273;-80
2023/07/10 11:22:32;;;;;;;8.30;5.47;;;32.30;64.90;;;;;;10511033;28;20216;-80
2023/07/10 11:27:37;;;;;;;6.07;5.57;;;32.20;64.60;;;;;;10509003;28;20236;-80
2023/07/10 11:32:57;;;;;;;6.37;5.87;;;32.00;64.30;;;;;;10525887;28;20219;-80
2023/07/10 11:38:17;;;;;;;7.73;5.57;;;32.00;64.40;;;;;;10516795;28;20216;-80
2023/07/10 11:43:57;;;;;;;8.27;6.10;;;31.90;63.40;;;;;;10521108;28;20692;-80
2023/07/10 11:49:16;;;;;;;5.53;5.07;;;31.80;63.00;;;;;;10533288;28;20228;-80
2023/07/10 11:55:01;;;;;;;6.27;5.77;;;31.70;63.80;;;;;;10486366;28;20224;-80
2023/07/10 12:00:06;;;;;;;6.40;5.90;;;31.50;62.70;;;;;;10505494;28;20212;-80
2023/07/10 12:05:20;;;;;;;6.27;5.87;;;31.40;62.60;;;;;;10533933;28;20212;-80
2023/07/10 12:10:23;;;;;;;6.13;5.57;;;31.40;61.10;;;;;;10525752;28;20232;-80
2023/07/10 12:15:27;;;;;;;5.50;5.10;;;31.30;62.50;;;;;;10513811;28;20518;-78
2023/07/10 12:20:33;;;;;;;5.40;4.90;;;31.30;62.80;;;;;;10531487;28;20200;-80
2023/07/10 12:25:35;;;;;;;8.20;5.50;;;31.40;59.90;;;;;;10497586;28;20241;-80
2023/07/10 12:30:38;;;;;;;5.60;5.10;;;31.50;58.10;;;;;;10521874;28;20208;-80
2023/07/10 12:35:42;;;;;;;5.23;4.83;;;31.60;57.50;;;;;;10506765;28;20462;-79
2023/07/10 12:40:45;;;;;;;4.73;4.37;;;31.50;57.40;;;;;;10501685;28;20213;-80
2023/07/10 12:45:47;;;;;;;5.60;4.77;;;31.40;57.40;;;;;;10516496;28;20229;-79
2023/07/10 12:50:53;;;;;;;4.50;4.20;;;31.40;56.70;;;;;;10526328;28;20232;-80
2023/07/10 12:56:07;;;;;;;5.53;5.03;;;31.40;57.90;;;;;;10516322;28;20320;-79
2023/07/10 13:01:20;;;;;;;6.00;4.63;;;31.30;57.70;;;;;;10520852;28;20205;-80
2023/07/10 13:06:25;;;;;;;4.20;3.90;;;31.20;57.90;;;;;;10509978;28;20216;-80
2023/07/10 13:11:27;;;;;;;4.50;4.20;;;31.10;57.20;;;;;;10524139;28;20682;-78
2023/07/10 13:16:29;;;;;;;4.73;4.33;;;31.10;57.20;;;;;;10525250;28;20309;-80
2023/07/10 13:21:33;;;;;;;4.27;3.97;;;31.20;56.40;;;;;;10520582;28;20227;-80
2023/07/10 13:26:35;;;;;;;9.63;5.20;;;31.20;55.50;;;;;;10516168;28;20711;-80
2023/07/10 13:31:37;;;;;;;5.10;4.70;;;31.10;56.50;;;;;;10525128;28;20280;-79
2023/07/10 13:36:41;;;;;;;6.57;5.60;;;31.10;55.40;;;;;;10512441;28;20213;-78
2023/07/10 13:41:44;;;;;;;4.50;4.10;;;31.10;56.10;;;;;;10531184;28;20220;-80
2023/07/10 13:46:46;;;;;;;5.40;5.00;;;31.10;57.50;;;;;;10515819;28;20279;-80
2023/07/10 13:51:49;;;;;;;4.80;4.37;;;31.00;56.00;;;;;;10495687;28;20217;-80
2023/07/10 13:56:51;;;;;;;5.23;4.40;;;31.00;56.70;;;;;;10525961;28;20236;-80
2023/07/10 14:01:54;;;;;;;4.77;4.47;;;31.00;57.70;;;;;;10523130;28;20193;-80
2023/07/10 14:07:03;;;;;;;4.77;4.30;;;31.10;57.10;;;;;;10522788;28;20220;-80
2023/07/10 14:12:05;;;;;;;5.87;5.30;;;31.10;57.90;;;;;;10487181;28;20193;-80
2023/07/10 14:17:13;;;;;;;5.60;5.20;;;31.10;57.50;;;;;;10508820;28;20621;-79
2023/07/10 14:22:17;;;;;;;9.13;5.60;;;31.10;57.70;;;;;;10513342;28;20204;-80
2023/07/10 14:27:21;;;;;;;4.93;4.53;;;31.10;57.50;;;;;;10514082;28;20246;-80
2023/07/10 14:32:26;;;;;;;5.70;5.20;;;31.00;58.10;;;;;;10518193;28;20602;-80
2023/07/10 14:37:29;;;;;;;6.97;5.00;;;31.00;57.80;;;;;;10518610;28;20262;-80
2023/07/10 14:42:31;;;;;;;4.67;4.37;;;31.00;58.10;;;;;;10515898;28;20305;-79
2023/07/10 14:47:36;;;;;;;5.07;4.60;;;30.90;58.10;;;;;;10508906;28;20219;-80
2023/07/10 14:52:41;;;;;;;5.03;4.60;;;30.90;58.50;;;;;;10512229;28;20205;-79
2023/07/10 14:57:43;;;;;;;7.40;5.07;;;30.80;58.80;;;;;;10516711;28;20233;-80
2023/07/10 15:02:45;;;;;;;5.70;5.20;;;30.80;58.80;;;;;;10515826;28;20209;-79
2023/07/10 15:07:56;;;;;;;5.40;4.67;;;30.80;58.60;;;;;;10500220;28;20220;-80
2023/07/10 15:13:02;;;;;;;5.57;5.13;;;30.80;58.70;;;;;;10505524;28;20197;-80
2023/07/10 15:18:05;;;;;;;4.87;4.47;;;30.70;58.50;;;;;;10503182;28;20236;-80
2023/07/10 15:23:20;;;;;;;6.80;5.40;;;30.70;59.00;;;;;;10524512;28;20203;-79
2023/07/10 15:28:22;;;;;;;5.23;4.83;;;30.70;58.20;;;;;;10525725;28;20304;-79
2023/07/10 15:33:28;;;;;;;4.70;4.30;;;30.70;58.80;;;;;;10527105;28;20545;-80
2023/07/10 15:38:31;;;;;;;5.47;4.97;;;30.60;59.30;;;;;;10528839;28;20213;-79
2023/07/10 15:43:35;;;;;;;5.27;4.60;;;30.50;59.30;;;;;;10516828;28;20658;-80
2023/07/10 15:48:39;;;;;;;5.07;4.27;;;30.50;58.70;;;;;;10516432;28;20221;-78
2023/07/10 15:53:42;;;;;;;5.17;4.53;;;30.50;59.10;;;;;;10514582;28;20204;-78
2023/07/10 15:58:45;;;;;;;6.00;5.47;;;30.40;59.30;;;;;;10526154;28;20709;-78
2023/07/10 16:03:51;;;;;;;5.67;5.27;;;30.40;58.60;;;;;;10534561;28;20564;-77
2023/07/10 16:08:54;;;;;;;5.90;5.37;;;30.40;58.30;;;;;;10522666;28;20214;-79
2023/07/10 16:13:56;;;;;;;5.87;4.60;;;30.40;57.60;;;;;;10503540;28;20200;-79
2023/07/10 16:18:58;;;;;;;5.47;4.97;;;30.40;58.30;;;;;;10505636;28;20217;-79
2023/07/10 16:24:09;;;;;;;4.90;4.40;;;30.30;58.00;;;;;;10533200;28;20213;-79
2023/07/10 16:29:11;;;;;;;5.73;5.03;;;30.30;58.90;;;;;;10509833;28;20196;-79
2023/07/10 16:34:17;;;;;;;5.70;5.07;;;30.20;58.60;;;;;;10510120;28;20312;-78
2023/07/10 16:39:20;;;;;;;5.17;4.87;;;30.20;58.20;;;;;;10502851;28;20238;-79
2023/07/10 16:44:23;;;;;;;5.33;4.90;;;30.20;58.10;;;;;;10524469;28;20364;-79
2023/07/10 16:49:25;;;;;;;5.70;5.20;;;30.10;58.50;;;;;;10522810;28;20189;-80
2023/07/10 16:54:28;;;;;;;5.40;5.00;;;30.00;58.40;;;;;;10526008;28;20217;-80
2023/07/10 16:59:30;;;;;;;4.80;4.50;;;30.00;58.20;;;;;;10523222;28;20221;-79
2023/07/10 17:04:32;;;;;;;5.23;4.77;;;30.00;58.10;;;;;;10525275;28;20212;-80
2023/07/10 17:09:36;;;;;;;5.17;4.60;;;29.90;58.40;;;;;;10523035;28;20209;-80
2023/07/10 17:14:38;;;;;;;5.00;4.60;;;29.80;58.20;;;;;;10521718;28;20229;-80
2023/07/10 17:19:41;;;;;;;5.03;4.60;;;29.70;58.00;;;;;;10524816;28;20250;-79
2023/07/10 17:24:45;;;;;;;4.13;3.83;;;29.70;58.30;;;;;;10512798;28;20223;-79
2023/07/10 17:29:47;;;;;;;4.90;4.40;;;29.60;58.40;;;;;;10539298;22;20238;-79
2023/07/10 17:34:49;;;;;;;5.60;5.10;;;29.60;58.00;;;;;;10516526;28;20208;-78
2023/07/10 17:39:53;;;;;;;7.03;4.70;;;29.50;57.50;;;;;;10479304;28;20221;-78
2023/07/10 17:44:55;;;;;;;7.37;4.50;;;29.40;57.60;;;;;;10474031;28;20247;-78
2023/07/10 17:49:57;;;;;;;4.50;4.20;;;29.40;58.00;;;;;;10479350;28;20254;-80
2023/07/10 17:55:01;;;;;;;4.73;4.43;;;29.30;57.80;;;;;;10447350;28;20690;-77
2023/07/10 18:00:03;;;;;;;5.10;4.70;;;29.20;58.50;;;;;;10484832;28;20248;-78
2023/07/10 18:05:17;;;;;;;5.50;4.60;;;29.20;58.20;;;;;;10491106;28;20201;-77
2023/07/10 18:10:20;;;;;;;5.57;5.17;;;29.10;57.80;;;;;;10489580;28;20232;-78
2023/07/10 18:15:22;;;;;;;4.23;3.70;;;29.00;58.20;;;;;;10433114;28;20201;-79
2023/07/10 18:20:24;;;;;;;3.73;3.43;;;29.00;57.50;;;;;;10457445;28;20312;-79
2023/07/10 18:25:29;;;;;;;5.13;4.63;;;28.90;57.40;;;;;;10456166;28;20718;-78
2023/07/10 18:30:31;;;;;;;5.00;4.50;;;28.90;58.00;;;;;;10447115;28;20257;-79
2023/07/10 18:35:33;;;;;;;4.87;4.47;;;28.80;59.00;;;;;;10463024;28;20202;-79
2023/07/10 18:40:36;;;;;;;5.00;4.60;;;28.70;58.20;;;;;;10469411;28;20266;-80
2023/07/10 18:45:39;;;;;;;4.60;4.30;;;28.60;59.60;;;;;;10476597;28;20231;-79
2023/07/10 18:50:41;;;;;;;4.17;3.83;;;28.50;60.80;;;;;;10488134;28;20244;-79
2023/07/10 18:55:45;;;;;;;4.27;3.87;;;28.40;62.20;;;;;;10482857;28;20212;-79
2023/07/10 19:00:47;;;;;;;4.27;3.93;;;28.30;59.90;;;;;;10473164;28;20770;-78
2023/07/10 19:05:51;;;;;;;4.70;4.40;;;28.20;62.90;;;;;;10478831;28;20676;-78
2023/07/10 19:10:54;;;;;;;5.67;5.17;;;28.10;63.40;;;;;;10481269;28;20767;-76
2023/07/10 19:15:59;;;;;;;5.20;4.90;;;28.10;61.90;;;;;;10481215;28;20468;-76
2023/07/10 19:21:03;;;;;;;4.60;4.20;;;28.00;61.50;;;;;;10480517;28;20212;-78
2023/07/10 19:26:07;;;;;;;7.87;7.27;;;27.90;61.50;;;;;;10482060;28;20208;-76
2023/07/10 19:31:13;;;;;;;5.23;4.80;;;27.80;61.90;;;;;;10480819;28;20791;-78
2023/07/10 19:36:20;;;;;;;8.67;7.87;;;27.80;60.90;;;;;;10472241;28;20257;-78
2023/07/10 19:41:24;;;;;;;5.20;4.80;;;27.80;62.90;;;;;;10480419;28;20205;-78
2023/07/10 19:46:27;;;;;;;4.37;4.07;;;27.70;60.30;;;;;;10482219;28;20218;-78
2023/07/10 19:51:29;;;;;;;4.83;4.43;;;27.60;60.80;;;;;;10479881;28;20205;-79
2023/07/10 19:56:33;;;;;;;4.93;4.60;;;27.60;60.90;;;;;;10480853;28;20308;-77
2023/07/10 20:01:35;;;;;;;4.60;4.30;;;27.50;62.70;;;;;;10463414;28;20220;-77
2023/07/10 20:06:37;;;;;;;5.43;4.17;;;27.50;64.70;;;;;;10453692;28;20663;-77
2023/07/10 20:11:41;;;;;;;5.07;4.67;;;27.50;62.80;;;;;;10454895;28;20212;-77
2023/07/10 20:16:45;;;;;;;5.40;5.00;;;27.40;61.70;;;;;;10477642;28;20766;-77
2023/07/10 20:21:48;;;;;;;5.50;4.20;;;27.20;61.70;;;;;;10482362;28;20240;-78
2023/07/10 20:26:52;;;;;;;5.27;4.77;;;27.20;61.20;;;;;;10456349;28;20313;-79
2023/07/10 20:31:54;;;;;;;5.40;4.93;;;27.10;61.80;;;;;;10423326;28;20202;-76
2023/07/10 20:36:56;;;;;;;4.67;4.27;;;27.00;62.30;;;;;;10385234;28;20226;-77
2023/07/10 20:42:00;;;;;;;7.87;4.50;;;26.90;62.70;;;;;;10409286;28;20617;-77
2023/07/10 20:47:02;;;;;;;5.27;4.60;;;26.80;62.30;;;;;;10407138;28;20220;-78
2023/07/10 20:52:05;;;;;;;4.33;4.10;;;26.70;62.90;;;;;;10383256;28;20579;-78
2023/07/10 20:57:12;;;;;;;4.17;3.90;;;26.70;62.60;;;;;;10409359;28;20230;-78
2023/07/10 21:02:18;;;;;;;5.47;4.97;;;26.60;62.80;;;;;;10391157;28;20316;-77
2023/07/10 21:07:21;;;;;;;4.90;4.50;;;26.60;63.10;;;;;;10397142;28;20215;-77
2023/07/10 21:12:24;;;;;;;4.93;4.60;;;26.50;63.20;;;;;;10399892;28;20218;-78
2023/07/10 21:17:30;;;;;;;4.80;4.40;;;26.40;62.90;;;;;;10400794;28;20721;-76
2023/07/10 21:22:32;;;;;;;5.83;4.73;;;26.40;62.60;;;;;;10403717;28;20198;-77
2023/07/10 21:27:36;;;;;;;4.90;4.50;;;26.30;62.80;;;;;;10408679;28;20659;-78
2023/07/10 21:32:38;;;;;;;4.53;4.23;;;26.20;62.80;;;;;;10397481;28;20201;-77
2023/07/10 21:37:41;;;;;;;4.57;4.23;;;26.20;62.70;;;;;;10396382;28;20713;-78
2023/07/10 21:42:44;;;;;;;5.30;4.90;;;26.10;62.40;;;;;;10400964;28;20659;-78
2023/07/10 21:47:46;;;;;;;4.50;4.10;;;26.00;62.50;;;;;;10369358;28;20229;-78
2023/07/10 21:52:50;;;;;;;4.30;4.00;;;25.90;62.90;;;;;;10387843;28;20206;-78
2023/07/10 21:57:53;;;;;;;4.67;4.33;;;25.90;63.10;;;;;;10403333;28;20228;-77
2023/07/10 22:02:55;;;;;;;4.93;4.53;;;25.90;63.70;;;;;;10404540;28;20199;-78
2023/07/10 22:07:57;;;;;;;4.90;4.50;;;25.80;63.60;;;;;;10371363;28;20245;-78
2023/07/10 22:13:01;;;;;;;4.30;3.97;;;25.80;63.40;;;;;;10413358;28;20207;-78
2023/07/10 22:18:03;;;;;;;5.20;4.10;;;25.80;63.20;;;;;;10361707;28;20223;-76
2023/07/10 22:23:05;;;;;;;4.57;4.27;;;25.70;62.90;;;;;;10409298;28;20206;-76
2023/07/10 22:28:13;;;;;;;5.10;4.33;;;25.60;63.00;;;;;;10406934;28;20226;-78
2023/07/10 22:33:17;;;;;;;4.40;4.10;;;25.60;63.40;;;;;;10403130;28;20201;-78
2023/07/10 22:38:20;;;;;;;4.83;4.30;;;25.60;63.80;;;;;;10380050;28;20229;-77
2023/07/10 22:43:26;;;;;;;4.03;3.70;;;25.60;63.20;;;;;;10400965;28;20206;-78
2023/07/10 22:48:29;;;;;;;3.90;3.50;;;25.50;63.20;;;;;;10383023;28;20203;-79
2023/07/10 22:53:31;;;;;;;4.67;4.30;;;25.50;63.60;;;;;;10379631;28;20199;-78
2023/07/10 22:58:35;;;;;;;4.63;4.23;;;25.50;64.20;;;;;;10404884;28;20235;-78
2023/07/10 23:03:37;;;;;;;4.17;3.87;;;25.50;63.70;;;;;;10407153;28;20256;-77
2023/07/10 23:08:39;;;;;;;4.60;4.20;;;25.50;63.40;;;;;;10402242;28;20249;-79
2023/07/10 23:13:44;;;;;;;4.50;4.20;;;25.50;63.40;;;;;;10441959;28;20725;-77
2023/07/10 23:18:51;;;;;;;4.57;4.17;;;25.50;64.30;;;;;;10425754;28;20244;-78
2023/07/10 23:23:54;;;;;;;3.97;3.70;;;25.40;63.90;;;;;;10418593;28;20206;-79
2023/07/10 23:29:00;;;;;;;4.10;3.80;;;25.40;64.80;;;;;;10478808;22;20229;-80
2023/07/10 23:34:02;;;;;;;4.53;4.13;;;25.30;64.60;;;;;;10450863;28;20407;-80
2023/07/10 23:39:05;;;;;;;4.60;4.20;;;25.30;63.80;;;;;;10442600;28;20217;-80
2023/07/10 23:44:09;;;;;;;4.10;3.70;;;25.30;64.00;;;;;;10484049;28;20615;-80
2023/07/10 23:49:11;;;;;;;3.90;3.60;;;25.30;64.30;;;;;;10489801;28;20274;-79
2023/07/10 23:54:13;;;;;;;4.23;3.93;;;25.20;63.90;;;;;;10479104;28;20209;-80
2023/07/10 23:59:16;;;;;;;4.30;3.90;;;25.10;63.90;;;;;;10457577;28;20305;-80
